Latest Weather Observations for Gove Airport

IDD60801

Issued at 6:01 am CST Thursday 16 August 2018 (issued every 10 minutes, with the page automatically refreshed every 10 minutes)

About weather observations | Map of weather stations | Latest weather observations for NT | Other Formats
Station Details ID: 014508 Name: GOVE AIRPORT Lat: -12.27 Lon: 136.82 Height: 51.6 m
Data from the previous 72 hours. | See also: Recent months at Gove Airport
Date/Time
CST
Temp
°C
App
Temp
°C
Dew
Point
°C
Rel
Hum
%
Delta-T
°C
Wind Press
QNH
hPa
Press
MSL
hPa
Rain since
9am
mm
Dir  Spd
km/h
Gust
km/h
Spd
kts
Gust
kts
16/06:00am 17.1 18.2 16.6 97 0.3 S 6 6 3 3 1013.3 1013.0 0.0
16/05:30am 17.2 18.4 16.9 98 0.2 S 6 7 3 4 1013.1 1012.8 0.0
16/05:00am 17.8 19.1 17.0 95 0.5 S 6 7 3 4 1013.1 1012.8 0.0
16/04:30am 17.8 19.1 17.0 95 0.5 S 6 9 3 5 1012.9 1012.6 0.0
16/04:00am 18.9 20.5 17.8 93 0.7 SSE 6 7 3 4 1013.1 1012.8 0.0
16/03:30am 19.5 21.1 17.9 90 1.0 SSE 6 7 3 4 1013.2 1012.9 0.0
16/03:00am 20.4 21.5 18.1 87 1.4 SSE 9 11 5 6 1013.4 1013.1 0.0
16/02:30am 20.5 22.1 18.3 87 1.4 SSE 7 9 4 5 1013.7 1013.4 0.0
16/02:00am 20.4 21.6 18.3 88 1.3 SSE 9 9 5 5 1014.1 1013.8 0.0
16/01:30am 20.3 22.0 18.5 89 1.1 SSE 7 11 4 6 1014.5 1014.2 0.0
16/01:00am 20.4 22.4 18.8 90 1.0 SE 6 7 3 4 1014.9 1014.6 0.0
16/12:30am 20.6 22.6 19.2 92 0.9 ESE 7 7 4 4 1015.1 1014.8 0.0
16/12:00am 20.7 22.6 19.0 90 1.1 SE 7 9 4 5 1015.3 1015.0 0.0
 
Date/Time
CST
Temp
°C
App
Temp
°C
Dew
Point
°C
Rel
Hum
%
Delta-T
°C
Wind Press
QNH
hPa
Press
MSL
hPa
Rain since
9am
mm
Dir  Spd
km/h
Gust
km/h
Spd
kts
Gust
kts
15/11:30pm 20.8 22.5 19.4 92 0.9 SE 9 11 5 6 1015.3 1015.0 0.0
15/11:00pm 21.3 22.6 19.4 89 1.2 SSE 11 13 6 7 1015.6 1015.3 0.0
15/10:30pm 21.5 23.0 19.8 90 1.1 SE 11 13 6 7 1015.7 1015.4 0.0
15/10:00pm 21.6 24.1 20.2 92 0.9 SE 7 9 4 5 1015.8 1015.5 0.0
15/09:30pm 22.1 24.4 20.6 91 1.0 ESE 9 9 5 5 1015.8 1015.5 0.0
15/09:00pm 22.5 25.5 20.8 90 1.1 SE 6 7 3 4 1015.7 1015.4 0.0
15/08:30pm 22.5 25.3 20.5 88 1.3 SE 6 7 3 4 1015.4 1015.1 0.0
15/08:00pm 22.1 26.2 20.7 92 0.9 CALM 0 0 0 0 1015.1 1014.8 0.0
15/07:30pm 22.3 26.2 20.4 89 1.2 CALM 0 2 0 1 1014.8 1014.5 0.0
15/07:00pm 22.2 24.3 20.2 88 1.3 ESE 9 13 5 7 1014.4 1014.1 0.0
15/06:30pm 21.9 24.3 20.0 89 1.2 ESE 7 13 4 7 1014.1 1013.8 0.0
15/06:29pm 21.8 24.1 19.9 89 1.2 ESE 7 13 4 7 1014.1 1013.8 0.0
15/06:10pm 21.7 22.0 19.7 88 1.3 ESE 17 24 9 13 1014.1 1013.8 0.0
15/06:09pm 21.7 22.0 19.5 87 1.4 ESE 17 24 9 13 1014.1 1013.8 0.0
15/06:00pm 21.9 21.7 19.7 87 1.4 ESE 20 26 11 14 1013.9 1013.6 0.0
15/05:41pm 23.0 23.9 20.9 88 1.4 SE 17 26 9 14 1014.0 1013.7 0.0
15/05:30pm 23.4 25.4 20.8 85 1.7 ESE 11 15 6 8 1013.9 1013.6 0.0
15/05:00pm 24.9 24.4 19.0 69 3.8 SE 20 41 11 22 1013.6 1013.3 0.0
15/04:30pm 26.1 25.2 17.7 60 5.3 SE 19 24 10 13 1013.3 1013.0 0.0
15/04:00pm 26.2 24.2 17.4 58 5.5 ESE 24 32 13 17 1013.3 1013.0 0.0
15/03:30pm 25.7 24.7 17.9 62 4.9 SSE 20 28 11 15 1013.3 1013.0 0.0
15/03:00pm 25.7 24.3 17.9 62 4.9 SE 22 30 12 16 1013.4 1013.1 0.0
15/02:30pm 26.9 25.6 17.3 55 6.0 SE 20 28 11 15 1013.5 1013.2 0.0
15/02:00pm 26.3 24.1 17.0 56 5.8 SE 24 37 13 20 1013.9 1013.6 0.0
15/01:30pm 27.1 23.7 15.9 50 6.9 SE 28 37 15 20 1014.2 1013.9 0.0
15/01:00pm 27.0 24.6 16.5 52 6.5 SSE 24 37 13 20 1014.4 1014.1 0.0
15/12:30pm 26.9 24.0 16.2 52 6.6 SSE 26 35 14 19 1014.8 1014.5 0.0
15/12:00pm 27.4 24.5 16.2 50 6.9 SE 26 35 14 19 1015.2 1014.9 0.0
15/11:30am 26.7 24.4 16.7 54 6.2 SE 24 37 13 20 1015.7 1015.4 0.0
15/11:00am 26.6 24.4 17.9 59 5.5 SE 26 35 14 19 1016.1 1015.8 0.0
15/10:30am 26.9 24.7 17.9 57 5.7 SE 26 35 14 19 1016.4 1016.1 0.0
15/10:00am 26.7 24.9 17.8 58 5.6 SE 24 37 13 20 1016.6 1016.3 0.0
15/09:30am 26.5 24.8 18.1 60 5.3 SE 24 32 13 17 1016.6 1016.3 0.0
15/09:00am 25.4 24.3 18.6 66 4.3 SE 22 35 12 19 1016.5 1016.2 0.0
15/08:30am 25.0 24.3 18.7 68 4.0 SE 20 30 11 16 1016.4 1016.1 0.0
15/08:00am 24.1 24.5 19.1 73 3.2 SSE 15 20 8 11 1015.9 1015.6 0.0
15/07:30am 22.3 23.2 19.3 83 1.9 SSE 13 17 7 9 1015.8 1015.5 0.0
15/07:00am 20.8 22.1 19.2 90 1.0 SSE 11 13 6 7 1015.6 1015.3 0.0
15/06:30am 20.4 21.9 18.8 90 1.0 SSE 9 13 5 7 1015.1 1014.8 0.0
15/06:00am 20.4 21.9 18.8 90 1.0 SSE 9 11 5 6 1014.9 1014.6 0.0
15/05:30am 20.5 21.9 18.7 89 1.1 SSE 9 11 5 6 1014.7 1014.4 0.0
15/05:00am 19.9 21.6 18.6 92 0.8 SSE 7 9 4 5 1014.7 1014.4 0.0
15/04:30am 19.3 20.7 17.8 91 0.9 SSE 7 7 4 4 1014.8 1014.5 0.0
15/04:00am 20.3 22.0 18.4 89 1.2 SSE 7 11 4 6 1014.8 1014.5 0.0
15/03:30am 20.3 21.6 18.5 89 1.1 SSE 9 11 5 6 1014.8 1014.5 0.0
15/03:00am 20.5 21.9 18.6 89 1.2 SSE 9 11 5 6 1014.9 1014.6 0.0
15/02:30am 20.7 21.9 18.3 86 1.5 SSE 9 11 5 6 1015.0 1014.7 0.0
15/02:00am 20.9 22.6 18.5 86 1.5 SSE 7 9 4 5 1015.3 1015.0 0.0
15/01:30am 21.3 22.7 18.6 84 1.7 SSE 9 9 5 5 1015.6 1015.3 0.0
15/01:00am 21.5 22.9 18.6 83 1.8 SSE 9 11 5 6 1015.7 1015.4 0.0
15/12:30am 21.8 22.7 18.5 81 2.1 SE 11 13 6 7 1015.9 1015.6 0.0
15/12:00am 22.2 23.1 18.5 79 2.3 SE 11 13 6 7 1016.1 1015.8 0.0
 
Date/Time
CST
Temp
°C
App
Temp
°C
Dew
Point
°C
Rel
Hum
%
Delta-T
°C
Wind Press
QNH
hPa
Press
MSL
hPa
Rain since
9am
mm
Dir  Spd
km/h
Gust
km/h
Spd
kts
Gust
kts
14/11:30pm 22.6 23.3 18.8 79 2.4 SE 13 17 7 9 1016.3 1016.0 0.0
14/11:00pm 22.6 23.9 18.5 77 2.6 SE 9 15 5 8 1016.3 1016.0 0.0
14/10:30pm 22.8 23.7 18.5 77 2.7 SE 11 15 6 8 1016.4 1016.1 0.0
14/10:00pm 23.0 23.7 18.9 78 2.6 SE 13 17 7 9 1016.6 1016.3 0.0
14/09:30pm 22.5 23.8 18.4 77 2.6 SSE 9 11 5 6 1016.6 1016.3 0.0
14/09:21pm 22.6 23.8 18.3 76 2.7 SSE 9 11 5 6 1016.6 1016.3 0.0
14/09:07pm 22.6 23.7 18.1 76 2.8 SSE 9 11 5 6 1016.6 1016.3 0.0
14/09:00pm 22.6 23.7 18.1 76 2.8 SSE 9 11 5 6 1016.5 1016.2 0.0
14/08:30pm 22.8 24.0 18.3 76 2.8 SSE 9 11 5 6 1016.4 1016.1 0.0
14/08:00pm 22.9 23.9 18.6 77 2.7 SSE 11 15 6 8 1016.2 1015.9 0.0
14/07:30pm 23.2 24.3 18.8 76 2.8 SSE 11 13 6 7 1015.8 1015.5 0.0
14/07:00pm 23.5 24.5 18.6 74 3.1 SSE 11 15 6 8 1015.5 1015.2 0.0
14/06:30pm 23.8 24.2 18.2 71 3.5 SSE 13 19 7 10 1015.3 1015.0 0.0
14/06:00pm 24.3 23.5 17.9 67 4.0 SSE 19 28 10 15 1015.2 1014.9 0.0
14/05:30pm 24.8 23.6 17.4 63 4.6 SSE 20 33 11 18 1015.0 1014.7 0.0
14/05:00pm 25.5 23.6 16.8 58 5.4 SSE 22 35 12 19 1014.8 1014.5 0.0
14/04:30pm 25.9 23.4 16.1 54 6.0 SSE 24 32 13 17 1014.6 1014.3 0.0
14/04:00pm 26.2 23.6 15.9 53 6.3 SSE 24 35 13 19 1014.5 1014.2 0.0
14/03:30pm 26.9 24.3 16.0 51 6.7 SSE 24 33 13 18 1014.6 1014.3 0.0
14/03:00pm 25.8 23.2 15.8 54 6.1 SSE 24 35 13 19 1014.8 1014.5 0.0
14/02:30pm 27.0 23.5 15.5 49 7.0 SSE 28 35 15 19 1015.0 1014.7 0.0
14/02:00pm 28.2 25.2 15.9 47 7.6 SSE 26 37 14 20 1015.4 1015.1 0.0
14/01:30pm 27.8 24.5 15.1 46 7.7 SE 26 39 14 21 1015.9 1015.6 0.0
14/01:00pm 27.2 24.3 16.0 50 6.9 SSE 26 35 14 19 1016.3 1016.0 0.0
14/12:30pm 25.7 23.2 16.1 55 5.9 SSE 24 33 13 18 1016.8 1016.5 0.0
14/12:07pm 26.0 22.5 15.5 52 6.4 SE 28 46 15 25 1017.1 1016.8 0.0
14/12:00pm 26.6 23.1 15.4 50 6.8 SE 28 39 15 21 1017.2 1016.9 0.0
14/11:30am 26.8 22.8 15.3 49 7.0 SSE 30 41 16 22 1017.5 1017.2 0.0
14/11:00am 26.3 23.1 15.4 51 6.6 SE 26 37 14 20 1017.9 1017.7 0.0
14/10:30am 26.8 23.7 15.7 50 6.8 SE 26 41 14 22 1018.1 1017.9 0.0
14/10:00am 26.6 22.4 15.6 50 6.7 SE 32 46 17 25 1018.3 1018.1 0.0
14/09:30am 26.0 22.5 15.4 52 6.4 SSE 28 44 15 24 1018.3 1018.1 0.0
14/09:00am 25.6 22.1 15.5 53 6.1 SSE 28 35 15 19 1018.4 1018.2 0.0
14/08:30am 25.3 22.7 15.8 55 5.8 SE 24 32 13 17 1018.2 1018.0 0.0
14/08:00am 24.7 22.1 14.8 54 5.9 SE 22 32 12 17 1018.0 1017.8 0.0
14/07:30am 23.7 21.2 14.0 54 5.7 SE 20 32 11 17 1017.9 1017.7 0.0
14/07:00am 23.2 19.5 13.8 55 5.5 SE 26 39 14 21 1017.7 1017.5 0.0
14/06:30am 22.8 20.3 14.1 58 5.1 SE 20 28 11 15 1017.4 1017.1 0.0
14/06:00am 22.5 20.0 14.1 59 4.9 SSE 20 26 11 14 1017.0 1016.7 0.0
14/05:30am 22.1 20.5 15.0 64 4.2 SSE 17 26 9 14 1016.6 1016.3 0.0
14/05:00am 21.7 20.7 15.5 68 3.7 SSE 15 20 8 11 1016.4 1016.1 0.0
14/04:30am 21.6 20.7 15.9 70 3.4 SSE 15 22 8 12 1016.3 1016.0 0.0
14/04:00am 21.5 20.7 16.2 72 3.2 SSE 15 20 8 11 1016.3 1016.0 0.0
14/03:30am 21.3 21.1 16.7 75 2.8 SSE 13 19 7 10 1016.4 1016.1 0.0
14/03:00am 21.4 21.6 16.8 75 2.8 SSE 11 17 6 9 1016.4 1016.1 0.0
14/02:30am 21.5 21.4 16.9 75 2.8 SSE 13 20 7 11 1016.6 1016.3 0.0
14/02:00am 21.5 21.0 16.9 75 2.8 SSE 15 20 8 11 1016.8 1016.5 0.0
14/01:30am 21.7 21.2 17.0 74 2.9 SSE 15 24 8 13 1017.0 1016.7 0.0
14/01:00am 21.9 21.4 16.8 73 3.1 SSE 15 20 8 11 1017.2 1016.9 0.0
14/12:30am 21.9 21.7 16.8 73 3.1 SSE 13 20 7 11 1017.5 1017.2 0.0
14/12:00am 21.9 21.7 16.6 72 3.2 SSE 13 19 7 10 1017.8 1017.6 0.0
 
Date/Time
CST
Temp
°C
App
Temp
°C
Dew
Point
°C
Rel
Hum
%
Delta-T
°C
Wind Press
QNH
hPa
Press
MSL
hPa
Rain since
9am
mm
Dir  Spd
km/h
Gust
km/h
Spd
kts
Gust
kts
13/11:30pm 22.0 21.8 16.6 71 3.3 SSE 13 19 7 10 1018.0 1017.8 0.0
13/11:00pm 21.9 21.2 16.5 71 3.3 SSE 15 20 8 11 1018.1 1017.9 0.0
13/10:30pm 21.9 20.7 16.1 69 3.5 SSE 17 22 9 12 1018.2 1018.0 0.0
13/10:00pm 21.8 20.6 16.2 70 3.4 SSE 17 22 9 12 1018.2 1018.0 0.0
13/09:30pm 22.0 20.8 16.0 68 3.6 SSE 17 24 9 13 1018.2 1018.0 0.0
13/09:00pm 22.1 20.5 16.0 68 3.7 SSE 19 30 10 16 1018.1 1017.9 0.0
13/08:30pm 22.1 20.9 16.0 68 3.7 SSE 17 28 9 15 1017.8 1017.6 0.0
13/08:00pm 22.1 20.8 15.8 67 3.8 SSE 17 24 9 13 1017.5 1017.2 0.0
13/07:30pm 22.3 20.3 15.6 66 4.0 SSE 20 32 11 17 1017.2 1016.9 0.0
13/07:00pm 22.4 20.5 15.7 66 4.0 SSE 20 30 11 16 1017.0 1016.7 0.0
13/06:30pm 22.5 20.2 15.7 65 4.1 SSE 22 35 12 19 1016.7 1016.4 0.0
13/06:00pm 22.8 20.1 15.5 63 4.4 SSE 24 39 13 21 1016.3 1016.0 0.0
13/05:30pm 23.6 21.3 15.6 61 4.8 SSE 22 32 12 17 1016.1 1015.8 0.0
13/05:00pm 23.9 20.7 15.4 59 5.1 SSE 26 37 14 20 1015.8 1015.5 0.0
13/04:30pm 24.6 20.9 15.1 55 5.7 SSE 28 43 15 23 1015.6 1015.3 0.0
13/04:00pm 24.3 19.7 15.1 56 5.5 SSE 33 48 18 26 1015.4 1015.1 0.0
13/03:30pm 24.5 19.8 14.8 54 5.8 SSE 33 46 18 25 1015.5 1015.2 0.0
13/03:00pm 25.4 20.8 14.5 51 6.5 S 32 41 17 22 1015.6 1015.3 0.0
13/02:30pm 25.2 20.6 14.5 51 6.4 SSE 32 48 17 26 1016.0 1015.7 0.0
13/02:05pm 26.1 21.9 14.6 49 6.9 SSE 30 48 16 26 1016.3 1016.0 0.0
13/02:00pm 25.6 21.0 14.6 50 6.6 SSE 32 48 17 26 1016.4 1016.1 0.0
13/01:30pm 25.4 21.7 15.1 53 6.2 SSE 28 46 15 25 1016.8 1016.5 0.0
13/01:00pm 25.8 21.2 14.6 50 6.7 SSE 32 52 17 28 1017.0 1016.7 0.0
13/12:54pm 25.0 20.5 15.0 53 6.0 SSE 32 52 17 28 1017.0 1016.7 0.0
13/12:30pm 25.6 21.6 15.2 52 6.3 SSE 30 43 16 23 1017.2 1016.9 0.0
13/12:00pm 25.4 21.4 15.1 53 6.2 SSE 30 44 16 24 1017.5 1017.2 0.0
13/11:30am 25.7 22.2 15.5 53 6.2 SSE 28 44 15 24 1018.0 1017.8 0.0
13/11:15am 25.7 21.7 15.1 52 6.4 SSE 30 48 16 26 1018.1 1017.9 0.0
13/11:00am 25.2 20.5 14.4 51 6.4 SSE 32 46 17 25 1018.3 1018.1 0.0
13/10:30am 25.2 20.2 15.0 53 6.1 SSE 35 48 19 26 1018.4 1018.2 0.0
13/10:00am 25.5 21.0 14.8 51 6.4 SSE 32 52 17 28 1018.3 1018.1 0.0
13/09:30am 25.2 21.1 14.8 52 6.2 SSE 30 46 16 25 1018.3 1018.1 0.0
13/09:07am 24.8 20.2 14.5 52 6.1 SE 32 50 17 27 1018.1 1017.9 0.0
13/09:00am 25.2 20.6 14.6 51 6.3 SSE 32 43 17 23 1018.1 1017.9 0.0
13/08:30am 24.9 21.2 14.9 53 6.0 SE 28 41 15 22 1017.7 1017.5 0.0
13/08:25am 24.7 20.6 15.0 54 5.8 SSE 30 48 16 26 1017.7 1017.5 0.0
13/08:00am 24.1 20.8 15.1 57 5.4 SSE 26 39 14 21 1017.4 1017.1 0.0
13/07:30am 23.4 20.8 14.8 58 5.1 SSE 22 32 12 17 1017.0 1016.7 0.0
13/07:00am 22.8 20.3 14.1 58 5.1 SSE 20 30 11 16 1016.7 1016.4 0.0
13/06:30am 22.7 20.2 14.0 58 5.1 SSE 20 30 11 16 1016.3 1016.0 0.0

Other Formats:

Comma delimited format used in spreadsheet applications
http://www.bom.gov.au/fwo/IDD60801/IDD60801.94150.axf

JavaScript Object Notation format (JSON) in row-major order
http://www.bom.gov.au/fwo/IDD60801/IDD60801.94150.json